»·PEaware :: N584M 1L1-2O7

N584M :: 1L1-2O7

FLIGHT INFORMATION

Flight Status: Arrived
Operator: Privately registered:
United States
More flights under this callsign
Pilot: Michael F. (10210)
Aircraft: ROCKWELL T-6 TEXAN
(T6)
More flights by this aircraft type
Origin: 1L1 Lincoln Co
United States
Destination: 2O7 Independence
United States
More flights between these airports :: More routes between these airports
Route: +V244 TPH V135 TEZUM TEVOC PULIE
File this flight plan on PilotEdge
Remarks: Alphabet challenge
Altitude:
(Current/Filed)
10,500ft
Speed:
(Current/Filed)
130kts
Departed: 01-Apr-16 09:18 AM
Arrived: 01-Apr-16 10:57 AM
Distance/Time
Traveled:
190nm/1:39
Distance/Time
To Go:
Arrived

Flight Plot

Page will automatically refresh every two minutes.

Flight plan parsing failed; only flown route is shown


Map Options




Map Legend


Flown Route
Filed Route
Departure Airport
Arrival Airport
Navaid (VOR, NDB)
Fix

Horizontal Profiles

Position Reports

Time Latitude Longitude Heading Altitude Ground
Speed
01-Apr-16 08:53 37.793257 -114.419837 4 4833ft 0kts
01-Apr-16 08:54 37.793257 -114.419837 4 4833ft 0kts
01-Apr-16 08:55 37.793257 -114.419837 4 4833ft 0kts
01-Apr-16 08:56 37.793258 -114.419837 5 4833ft 0kts
01-Apr-16 08:57 37.793258 -114.419837 5 4833ft 0kts
01-Apr-16 08:58 37.793258 -114.419837 5 4833ft 0kts
01-Apr-16 08:59 37.793259 -114.419837 5 4833ft 0kts
01-Apr-16 09:00 37.793259 -114.419837 6 4833ft 0kts
01-Apr-16 09:01 37.793259 -114.419837 6 4833ft 0kts
01-Apr-16 09:02 37.793137 -114.420886 266 4833ft 5kts
01-Apr-16 09:03 37.790018 -114.421368 177 4833ft 15kts
01-Apr-16 09:04 37.785557 -114.421888 177 4833ft 13kts
01-Apr-16 09:05 37.782384 -114.422201 184 4833ft 12kts
01-Apr-16 09:06 37.781265 -114.422356 6 4833ft 0kts
01-Apr-16 09:07 37.781268 -114.422356 7 4833ft 0kts
01-Apr-16 09:08 37.781276 -114.422354 8 4833ft 0kts
01-Apr-16 09:09 37.781276 -114.422354 8 4833ft 0kts
01-Apr-16 09:10 37.793708 -114.421001 5 4999ft 96kts
01-Apr-16 09:11 37.805064 -114.436995 264 5785ft 105kts
01-Apr-16 09:12 37.814046 -114.478113 288 6710ft 107kts
01-Apr-16 09:13 37.821804 -114.507917 292 7359ft 106kts
01-Apr-16 09:14 37.832763 -114.543174 294 8114ft 107kts
01-Apr-16 09:15 37.843695 -114.579038 290 8823ft 112kts
01-Apr-16 09:16 37.853320 -114.616439 294 9508ft 112kts
01-Apr-16 09:17 37.865445 -114.653066 295 10189ft 112kts
01-Apr-16 09:18 37.875759 -114.694454 292 10417ft 140kts
01-Apr-16 09:19 37.885334 -114.742647 290 10361ft 141kts
01-Apr-16 09:20 37.895614 -114.789226 298 10410ft 133kts
01-Apr-16 09:21 37.909497 -114.831340 301 10505ft 129kts
01-Apr-16 09:22 37.923164 -114.874070 298 10548ft 132kts
01-Apr-16 09:23 37.936680 -114.917979 298 10554ft 133kts
01-Apr-16 09:24 37.945366 -114.964585 285 10571ft 136kts
01-Apr-16 09:25 37.954630 -115.011491 289 10525ft 137kts
01-Apr-16 09:26 37.963747 -115.059263 289 10492ft 139kts
01-Apr-16 09:27 37.970955 -115.107274 299 10463ft 137kts
01-Apr-16 09:28 37.987467 -115.151023 301 10436ft 137kts
01-Apr-16 09:29 38.007068 -115.192207 309 10443ft 134kts
01-Apr-16 09:30 38.025449 -115.233954 300 10423ft 135kts
01-Apr-16 09:31 38.040711 -115.278113 301 10396ft 136kts
01-Apr-16 09:32 38.055426 -115.322147 294 10424ft 134kts
01-Apr-16 09:33 38.067267 -115.368364 294 10342ft 139kts
01-Apr-16 09:34 38.080131 -115.414073 292 10353ft 137kts
01-Apr-16 09:35 38.085699 -115.461966 288 10352ft 138kts
01-Apr-16 09:36 38.085655 -115.508705 259 10546ft 133kts
01-Apr-16 09:37 38.072876 -115.555351 259 10586ft 139kts
01-Apr-16 09:38 38.065486 -115.605395 272 10535ft 144kts
01-Apr-16 09:39 38.061143 -115.655849 271 10553ft 143kts
01-Apr-16 09:40 38.057421 -115.706479 259 10475ft 148kts
01-Apr-16 09:41 38.051637 -115.757101 271 10463ft 142kts
01-Apr-16 09:42 38.052314 -115.807500 279 10412ft 141kts
01-Apr-16 09:43 38.060299 -115.856302 287 10389ft 141kts
01-Apr-16 09:44 38.068717 -115.903894 287 10467ft 139kts
01-Apr-16 09:45 38.076206 -115.952367 278 10478ft 142kts
01-Apr-16 09:46 38.077812 -116.002641 276 10479ft 142kts
01-Apr-16 09:47 38.079529 -116.052958 276 10474ft 142kts
01-Apr-16 09:48 38.080919 -116.103238 275 10473ft 142kts
01-Apr-16 09:49 38.082518 -116.153175 276 10479ft 141kts
01-Apr-16 09:50 38.084209 -116.203308 275 10483ft 142kts
01-Apr-16 09:51 38.085615 -116.253669 275 10486ft 142kts
01-Apr-16 09:52 38.087182 -116.303809 275 10479ft 141kts
01-Apr-16 09:53 38.087124 -116.353997 271 10478ft 142kts
01-Apr-16 09:54 38.085689 -116.395961 271 10479ft 141kts
01-Apr-16 09:55 38.083936 -116.445933 268 10478ft 142kts
01-Apr-16 09:56 38.081895 -116.496213 271 10481ft 142kts
01-Apr-16 09:57 38.080338 -116.546352 271 10482ft 142kts
01-Apr-16 09:58 38.077795 -116.596659 266 10482ft 143kts
01-Apr-16 09:59 38.072698 -116.646888 266 10483ft 143kts
01-Apr-16 10:00 38.067227 -116.697119 265 10480ft 143kts
01-Apr-16 10:01 38.061795 -116.747267 266 10489ft 143kts
01-Apr-16 10:02 38.056559 -116.797448 265 10490ft 143kts
01-Apr-16 10:03 38.051013 -116.847692 266 10502ft 142kts
01-Apr-16 10:04 38.045985 -116.898011 266 10509ft 143kts
01-Apr-16 10:05 38.040271 -116.949475 264 10540ft 153kts
01-Apr-16 10:06 38.035022 -117.002044 265 10523ft 146kts
01-Apr-16 10:07 38.017733 -117.045518 206 10546ft 156kts
01-Apr-16 10:08 37.986241 -117.082810 232 10552ft 161kts
01-Apr-16 10:09 37.953373 -117.118982 220 10475ft 150kts
01-Apr-16 10:10 37.926694 -117.146976 224 10448ft 149kts
01-Apr-16 10:11 37.896132 -117.182616 223 10468ft 151kts
01-Apr-16 10:12 37.864441 -117.218785 223 10447ft 154kts
01-Apr-16 10:13 37.833125 -117.255251 223 10443ft 151kts
01-Apr-16 10:14 37.796761 -117.297369 223 10457ft 155kts
01-Apr-16 10:15 37.770906 -117.327636 223 10443ft 148kts
01-Apr-16 10:16 37.740370 -117.363266 223 10460ft 155kts
01-Apr-16 10:17 37.708427 -117.400302 223 10459ft 157kts
01-Apr-16 10:18 37.676553 -117.437570 223 10456ft 156kts
01-Apr-16 10:19 37.646762 -117.475770 230 10432ft 147kts
01-Apr-16 10:20 37.620175 -117.514799 230 10429ft 145kts
01-Apr-16 10:21 37.593722 -117.553480 230 10432ft 145kts
01-Apr-16 10:22 37.567417 -117.592606 230 10442ft 146kts
01-Apr-16 10:23 37.540635 -117.632152 230 10456ft 152kts
01-Apr-16 10:24 37.513464 -117.672310 230 10438ft 147kts
01-Apr-16 10:25 37.486914 -117.711020 230 10442ft 145kts
01-Apr-16 10:26 37.460492 -117.749580 230 10441ft 145kts
01-Apr-16 10:27 37.434074 -117.788493 230 10453ft 147kts
01-Apr-16 10:28 37.406964 -117.827832 230 10566ft 153kts
01-Apr-16 10:29 37.379182 -117.868842 230 10578ft 155kts
01-Apr-16 10:30 37.351296 -117.909604 230 10577ft 154kts
01-Apr-16 10:31 37.323808 -117.949857 230 10552ft 147kts
01-Apr-16 10:32 37.297215 -117.988630 230 10547ft 145kts
01-Apr-16 10:33 37.270400 -118.027666 230 10565ft 151kts
01-Apr-16 10:34 37.242766 -118.067219 223 10548ft 148kts
01-Apr-16 10:35 37.210399 -118.098769 217 10547ft 145kts
01-Apr-16 10:36 37.178254 -118.129651 217 10545ft 147kts
01-Apr-16 10:37 37.144550 -118.159547 200 10457ft 155kts
01-Apr-16 10:38 37.102872 -118.168349 186 10116ft 150kts
01-Apr-16 10:39 37.061140 -118.171616 180 9592ft 148kts
01-Apr-16 10:40 37.019840 -118.172650 180 8975ft 147kts
01-Apr-16 10:41 36.978899 -118.176045 185 8273ft 146kts
01-Apr-16 10:42 36.938480 -118.183414 188 7561ft 143kts
01-Apr-16 10:43 36.898494 -118.189492 185 6816ft 144kts
01-Apr-16 10:44 36.859003 -118.192585 182 6199ft 140kts
01-Apr-16 10:45 36.827829 -118.221177 211 5540ft 143kts
01-Apr-16 10:46 36.791334 -118.211984 150 4875ft 134kts
01-Apr-16 10:47 36.794828 -118.193426 335 4411ft 89kts
01-Apr-16 10:48 36.815335 -118.204458 340 3905ft 54kts
01-Apr-16 10:49 36.818097 -118.205836 156 3905ft 20kts
01-Apr-16 10:50 36.813953 -118.203665 162 3905ft 18kts
01-Apr-16 10:51 36.810326 -118.201889 211 3905ft 3kts
01-Apr-16 10:52 36.810058 -118.202967 337 3905ft 0kts
01-Apr-16 10:53 36.810060 -118.202968 338 3905ft 0kts
01-Apr-16 10:54 36.810060 -118.202968 338 3905ft 0kts
01-Apr-16 10:55 36.810060 -118.202968 338 3905ft 0kts
01-Apr-16 10:56 36.810060 -118.202968 338 3905ft 0kts
01-Apr-16 10:57 36.810060 -118.202968 338 3905ft 0kts

Navigation Log

Ident Type
Flight plan parsing failed, navigation log unavailable